createdAt,value
2019-05-05T00:01:29.283Z,4.40
2019-05-05T00:04:19.104Z,4.67
2019-05-05T00:06:47.001Z,4.37
2019-05-05T00:09:14.762Z,4.97
2019-05-05T00:11:51.297Z,3.70
2019-05-05T00:14:28.983Z,4.47
2019-05-05T00:17:12.059Z,3.00
2019-05-05T00:19:39.810Z,3.90
2019-05-05T00:22:07.510Z,5.83
2019-05-05T00:24:35.202Z,3.40
2019-05-05T00:27:04.280Z,5.60
2019-05-05T00:29:32.094Z,4.87
2019-05-05T00:31:59.765Z,4.50
2019-05-05T00:34:27.443Z,6.43
2019-05-05T00:36:55.326Z,3.93
2019-05-05T00:39:25.342Z,4.23
2019-05-05T00:41:52.516Z,3.77
2019-05-05T00:44:21.334Z,4.47
2019-05-05T00:47:17.519Z,5.17
2019-05-05T00:49:49.380Z,3.70
2019-05-05T00:52:16.732Z,4.33
2019-05-05T00:54:45.007Z,3.93
2019-05-05T00:57:14.863Z,6.07
2019-05-05T00:59:42.368Z,5.27
2019-05-05T01:02:41.570Z,4.00
2019-05-05T01:05:25.316Z,4.53
2019-05-05T01:07:54.761Z,3.57
2019-05-05T01:10:24.623Z,6.70
2019-05-05T01:12:54.302Z,4.13
2019-05-05T01:15:21.849Z,4.40
2019-05-05T01:17:49.514Z,3.50
2019-05-05T01:20:17.668Z,4.47
2019-05-05T01:22:45.346Z,6.23
2019-05-05T01:25:14.782Z,5.23
2019-05-05T01:27:42.697Z,3.37
2019-05-05T01:30:15.079Z,5.47
2019-05-05T01:32:44.708Z,3.00
2019-05-05T01:35:14.328Z,4.20
2019-05-05T01:37:47.166Z,3.60
2019-05-05T01:40:37.113Z,4.57
2019-05-05T01:43:05.795Z,3.70
2019-05-05T01:45:34.734Z,3.80
2019-05-05T01:48:02.537Z,4.60
2019-05-05T01:50:30.217Z,4.53
2019-05-05T01:52:57.855Z,5.43
2019-05-05T01:55:25.741Z,6.70
2019-05-05T01:57:54.325Z,5.37
2019-05-05T02:00:22.234Z,3.97
2019-05-05T02:02:49.887Z,4.83
2019-05-05T02:05:17.623Z,4.13
2019-05-05T02:07:45.273Z,4.23
2019-05-05T02:10:15.333Z,7.17
2019-05-05T02:12:44.725Z,4.20
2019-05-05T02:15:14.926Z,2.80
2019-05-05T02:17:44.621Z,3.50
2019-05-05T02:20:38.668Z,3.23
2019-05-05T02:23:06.480Z,3.23
2019-05-05T02:25:34.651Z,3.87
2019-05-05T02:28:04.315Z,5.47
2019-05-05T02:30:55.046Z,4.63
2019-05-05T02:33:25.911Z,4.70
2019-05-05T02:35:55.409Z,4.70
2019-05-05T02:38:21.965Z,4.33
2019-05-05T02:40:50.301Z,2.73
2019-05-05T02:43:18.933Z,4.20
2019-05-05T02:46:25.453Z,3.80
2019-05-05T02:48:55.109Z,3.30
2019-05-05T02:51:25.778Z,3.10
2019-05-05T02:53:55.729Z,3.37
2019-05-05T02:56:29.165Z,3.93
2019-05-05T02:59:00.929Z,3.67
2019-05-05T03:01:47.812Z,3.53
2019-05-05T03:04:16.065Z,3.23
2019-05-05T03:06:47.931Z,4.60
2019-05-05T03:09:16.300Z,4.17
2019-05-05T03:11:47.043Z,4.03
2019-05-05T03:14:16.951Z,4.23
2019-05-05T03:16:44.790Z,3.83
2019-05-05T03:19:14.257Z,3.70
2019-05-05T03:21:44.123Z,4.73
2019-05-05T03:24:14.197Z,3.17
2019-05-05T03:26:41.643Z,4.10
2019-05-05T03:29:13.907Z,4.40
2019-05-05T03:31:45.806Z,3.40
2019-05-05T03:34:16.041Z,4.93
2019-05-05T03:36:44.080Z,4.93
2019-05-05T03:39:17.387Z,4.03
2019-05-05T03:42:16.635Z,6.00
2019-05-05T03:44:55.101Z,4.73
2019-05-05T03:47:24.072Z,5.70
2019-05-05T03:49:53.551Z,3.67
2019-05-05T03:52:21.619Z,3.50
2019-05-05T03:54:49.231Z,4.80
2019-05-05T03:57:17.645Z,4.40
2019-05-05T03:59:46.333Z,4.73
2019-05-05T04:02:28.853Z,2.43
2019-05-05T04:04:58.622Z,3.47
2019-05-05T04:07:26.297Z,4.67
2019-05-05T04:09:54.354Z,4.20
2019-05-05T04:12:23.639Z,5.33
2019-05-05T04:14:51.544Z,5.20
2019-05-05T04:17:31.278Z,4.83
2019-05-05T04:20:03.679Z,4.90
2019-05-05T04:22:31.878Z,6.90
2019-05-05T04:24:59.580Z,4.90
2019-05-05T04:27:28.303Z,5.80
2019-05-05T04:29:56.043Z,5.00
2019-05-05T04:32:24.398Z,5.13
2019-05-05T04:34:54.140Z,5.20
2019-05-05T04:37:23.766Z,9.20
2019-05-05T04:39:51.061Z,6.33
2019-05-05T04:42:18.761Z,6.73
2019-05-05T04:44:46.405Z,5.47
2019-05-05T04:47:20.177Z,6.70
2019-05-05T04:50:18.358Z,5.67
2019-05-05T04:52:46.196Z,4.10
2019-05-05T04:55:14.841Z,4.90
2019-05-05T04:57:43.676Z,5.43
2019-05-05T05:00:13.769Z,5.30
2019-05-05T05:03:00.843Z,6.57
2019-05-05T05:05:33.798Z,10.00
2019-05-05T05:08:03.263Z,5.77
2019-05-05T05:10:30.988Z,5.17
2019-05-05T05:12:58.573Z,7.63
2019-05-05T05:15:26.249Z,6.57
2019-05-05T05:18:00.929Z,6.33
2019-05-05T05:20:28.585Z,8.90
2019-05-05T05:22:56.256Z,6.67
2019-05-05T05:25:24.100Z,5.90
2019-05-05T05:27:53.494Z,8.17
2019-05-05T05:30:21.178Z,8.00
2019-05-05T05:32:48.892Z,8.07
2019-05-05T05:35:16.519Z,10.63
2019-05-05T05:37:44.742Z,7.90
2019-05-05T05:40:34.187Z,5.63
2019-05-05T05:43:04.675Z,6.87
2019-05-05T05:45:40.393Z,7.87
2019-05-05T05:48:18.812Z,6.43
2019-05-05T05:51:19.507Z,5.87
2019-05-05T05:53:47.348Z,5.90
2019-05-05T05:56:14.994Z,7.17
2019-05-05T05:58:44.220Z,5.50
2019-05-05T06:01:11.994Z,7.73
2019-05-05T06:03:39.681Z,7.10
2019-05-05T06:06:07.303Z,7.50
2019-05-05T06:08:34.944Z,5.50
2019-05-05T06:11:04.462Z,8.07
2019-05-05T06:13:33.653Z,6.43
2019-05-05T06:16:01.465Z,4.23
2019-05-05T06:18:29.255Z,4.63
2019-05-05T06:20:56.916Z,4.13
2019-05-05T06:23:24.627Z,5.10
2019-05-05T06:25:54.841Z,5.33
2019-05-05T06:28:23.544Z,7.37
2019-05-05T06:30:51.372Z,3.80
2019-05-05T06:33:18.996Z,8.67
2019-05-05T06:35:46.637Z,5.23
2019-05-05T06:38:14.490Z,6.70
2019-05-05T06:41:14.659Z,4.40
2019-05-05T06:44:00.568Z,7.43
2019-05-05T06:46:30.672Z,3.77
2019-05-05T06:48:58.358Z,5.30
2019-05-05T06:51:26.060Z,6.40
2019-05-05T06:53:54.725Z,5.53
2019-05-05T06:56:23.833Z,5.30
2019-05-05T06:58:51.510Z,5.00
2019-05-05T07:01:19.172Z,4.20
2019-05-05T07:03:46.805Z,4.57
2019-05-05T07:06:14.782Z,7.77
2019-05-05T07:08:43.878Z,5.70
2019-05-05T07:11:11.824Z,5.70
2019-05-05T07:13:39.608Z,4.50
2019-05-05T07:16:07.253Z,3.83
2019-05-05T07:18:35.002Z,4.43
2019-05-05T07:21:03.663Z,7.17
2019-05-05T07:23:31.475Z,4.17
2019-05-05T07:25:59.155Z,5.03
2019-05-05T07:28:26.800Z,5.57
2019-05-05T07:30:54.804Z,5.30
2019-05-05T07:33:23.927Z,6.43
2019-05-05T07:36:02.958Z,5.43
2019-05-05T07:38:26.494Z,7.83
2019-05-05T07:40:54.575Z,6.17
2019-05-05T07:43:23.970Z,5.07
2019-05-05T07:45:53.887Z,6.00
2019-05-05T07:48:21.845Z,5.67
2019-05-05T07:51:01.223Z,4.47
2019-05-05T07:53:19.858Z,4.77
2019-05-05T07:55:47.781Z,5.87
2019-05-05T07:58:15.908Z,5.27
2019-05-05T08:00:43.847Z,5.90
2019-05-05T08:03:14.380Z,6.23
2019-05-05T08:05:44.037Z,5.90
2019-05-05T08:08:13.730Z,7.60
2019-05-05T08:10:41.155Z,4.27
2019-05-05T08:13:08.815Z,4.53
2019-05-05T08:15:37.085Z,3.93
2019-05-05T08:18:24.596Z,4.47
2019-05-05T08:20:55.432Z,5.87
2019-05-05T08:23:35.517Z,7.17
2019-05-05T08:26:33.566Z,6.33
2019-05-05T08:29:20.554Z,6.70
2019-05-05T08:31:53.697Z,8.17
2019-05-05T08:34:21.473Z,3.87
2019-05-05T08:36:49.124Z,7.50
2019-05-05T08:39:16.790Z,5.63
2019-05-05T08:41:47.263Z,5.77
2019-05-05T08:44:16.262Z,4.57
2019-05-05T08:46:44.600Z,4.10
2019-05-05T08:49:13.712Z,4.47
2019-05-05T08:51:41.567Z,4.20
2019-05-05T08:54:09.346Z,5.50
2019-05-05T08:56:37.047Z,3.70
2019-05-05T08:59:04.780Z,5.60
2019-05-05T09:01:34.320Z,4.53
2019-05-05T09:04:04.019Z,5.23
2019-05-05T09:06:31.585Z,4.53
2019-05-05T09:08:59.383Z,3.97
2019-05-05T09:11:27.062Z,3.07
2019-05-05T09:14:14.977Z,3.67
2019-05-05T09:16:44.640Z,5.93
2019-05-05T09:19:16.025Z,6.07
2019-05-05T09:21:44.777Z,4.30
2019-05-05T09:24:47.210Z,5.93
2019-05-05T09:27:24.834Z,3.60
2019-05-05T09:29:54.310Z,5.33
2019-05-05T09:32:24.141Z,4.30
2019-05-05T09:34:51.544Z,2.80
2019-05-05T09:37:19.443Z,4.77
2019-05-05T09:39:47.178Z,3.93
2019-05-05T09:42:14.973Z,5.93
2019-05-05T09:44:43.838Z,4.27
2019-05-05T09:47:13.668Z,4.40
2019-05-05T09:49:41.401Z,2.73
2019-05-05T09:52:09.141Z,3.70
2019-05-05T09:54:36.828Z,3.53
2019-05-05T09:57:04.863Z,2.93
2019-05-05T09:59:34.474Z,2.47
2019-05-05T10:02:04.268Z,5.37
2019-05-05T10:04:32.264Z,5.67
2019-05-05T10:06:59.996Z,3.20
2019-05-05T10:09:27.722Z,4.83
2019-05-05T10:11:55.411Z,4.20
2019-05-05T10:14:23.186Z,3.53
2019-05-05T10:16:50.775Z,4.97
2019-05-05T10:19:19.464Z,2.43
2019-05-05T10:21:47.208Z,2.80
2019-05-05T10:24:37.154Z,2.50
2019-05-05T10:27:05.246Z,3.93
2019-05-05T10:29:32.875Z,2.90
2019-05-05T10:32:00.753Z,2.47
2019-05-05T11:12:03.088Z,4.20
2019-05-05T11:14:33.696Z,4.07
2019-05-05T11:17:03.938Z,3.87
2019-05-05T11:19:33.459Z,4.13
2019-05-05T11:22:00.731Z,3.30
2019-05-05T11:24:28.532Z,4.53
2019-05-05T11:26:56.248Z,3.80
2019-05-05T11:29:24.244Z,6.10
2019-05-05T11:31:52.579Z,3.83
2019-05-05T11:34:24.791Z,4.17
2019-05-05T11:37:07.484Z,3.00
2019-05-05T11:39:35.283Z,3.50
2019-05-05T11:42:04.429Z,3.77
2019-05-05T11:44:33.525Z,3.23
2019-05-05T11:47:03.552Z,3.40
2019-05-05T11:49:31.093Z,5.83
2019-05-05T11:51:58.723Z,3.60
2019-05-05T11:54:26.438Z,4.27
2019-05-05T11:56:54.161Z,3.60
2019-05-05T11:59:23.802Z,3.27
2019-05-05T12:01:51.321Z,4.80
2019-05-05T12:04:18.996Z,4.20
2019-05-05T12:06:46.622Z,2.90
2019-05-05T12:09:24.728Z,2.77
2019-05-05T12:11:54.510Z,2.70
2019-05-05T12:14:27.080Z,3.63
2019-05-05T12:16:54.114Z,2.63
2019-05-05T12:19:21.787Z,3.67
2019-05-05T12:21:49.500Z,3.63
2019-05-05T12:24:24.670Z,3.37
2019-05-05T12:27:30.236Z,3.40
2019-05-05T12:30:03.785Z,2.93
2019-05-05T12:32:31.524Z,4.43
2019-05-05T12:34:59.037Z,6.83
2019-05-05T12:37:26.717Z,4.90
2019-05-05T12:39:54.636Z,4.70
2019-05-05T12:42:24.231Z,4.03
2019-05-05T12:44:57.727Z,2.17
2019-05-05T12:47:44.406Z,2.50
2019-05-05T12:50:12.212Z,4.03
2019-05-05T12:52:40.065Z,4.23
2019-05-05T12:55:07.798Z,1.53
2019-05-05T12:57:35.478Z,3.43
2019-05-05T13:00:05.714Z,2.37
2019-05-05T13:02:33.569Z,4.17
2019-05-05T13:05:01.189Z,2.50
2019-05-05T13:07:29.009Z,3.23
2019-05-05T13:09:56.640Z,2.43
2019-05-05T13:12:24.364Z,2.27
2019-05-05T13:14:54.334Z,2.83
2019-05-05T13:17:21.665Z,5.77
2019-05-05T13:20:01.559Z,3.10
2019-05-05T13:22:47.490Z,3.47
2019-05-05T13:25:25.376Z,3.57
2019-05-05T13:27:57.138Z,2.27
2019-05-05T13:30:23.631Z,3.07
2019-05-05T13:32:54.573Z,3.73
2019-05-05T13:35:23.506Z,3.30
2019-05-05T13:37:51.410Z,2.23
2019-05-05T13:40:19.765Z,2.97
2019-05-05T13:42:47.556Z,2.67
2019-05-05T13:45:30.228Z,5.03
2019-05-05T13:47:57.898Z,2.33
2019-05-05T13:50:35.183Z,3.30
2019-05-05T13:53:03.939Z,2.60
2019-05-05T13:55:31.880Z,2.63
2019-05-05T13:57:59.526Z,2.80
2019-05-05T14:00:27.404Z,2.33
2019-05-05T14:02:55.440Z,2.20
2019-05-05T14:05:24.039Z,3.27
2019-05-05T14:07:53.657Z,3.83
2019-05-05T14:10:23.534Z,3.57
2019-05-05T14:12:51.187Z,3.00
2019-05-05T14:15:19.239Z,2.20
2019-05-05T14:17:47.178Z,2.67
2019-05-05T14:20:15.194Z,4.60
2019-05-05T14:22:43.795Z,3.47
2019-05-05T14:25:30.356Z,4.13
2019-05-05T14:27:58.152Z,3.10
2019-05-05T14:30:34.238Z,4.07
2019-05-05T14:33:03.754Z,3.90
2019-05-05T14:35:59.632Z,3.37
2019-05-05T14:38:44.357Z,3.10
2019-05-05T14:41:13.620Z,4.27
2019-05-05T14:43:43.869Z,2.80
2019-05-05T14:46:11.557Z,3.57
2019-05-05T14:48:39.254Z,4.97
2019-05-05T14:51:07.097Z,2.87
2019-05-05T14:53:34.933Z,3.60
2019-05-05T14:56:04.618Z,4.47
2019-05-05T14:58:32.540Z,9.07
2019-05-05T15:01:00.260Z,3.90
2019-05-05T15:03:27.976Z,6.30
2019-05-05T15:06:04.001Z,8.37
2019-05-05T15:08:46.903Z,6.10
2019-05-05T15:11:25.629Z,5.00
2019-05-05T15:13:54.702Z,4.93
2019-05-05T15:16:24.447Z,6.20
2019-05-05T15:18:52.676Z,5.73
2019-05-05T15:21:20.431Z,5.87
2019-05-05T15:23:48.136Z,5.63
2019-05-05T15:26:15.784Z,6.27
2019-05-05T15:28:45.193Z,5.70
2019-05-05T15:31:12.926Z,5.37
2019-05-05T15:33:40.600Z,6.23
2019-05-05T15:36:09.730Z,6.50
2019-05-05T15:38:37.455Z,8.00
2019-05-05T15:41:06.244Z,6.50
2019-05-05T15:43:33.872Z,7.30
2019-05-05T15:46:01.653Z,6.53
2019-05-05T15:48:29.607Z,5.37
2019-05-05T15:50:57.415Z,7.50
2019-05-05T15:53:25.158Z,4.43
2019-05-05T15:55:53.980Z,6.47
2019-05-05T15:58:23.615Z,6.10
2019-05-05T16:00:51.348Z,6.90
2019-05-05T16:03:19.091Z,6.80
2019-05-05T16:05:46.817Z,4.87
2019-05-05T16:08:14.460Z,6.30
2019-05-05T16:10:46.186Z,3.93
2019-05-05T16:13:13.686Z,6.50
2019-05-05T16:16:00.680Z,6.73
2019-05-05T16:18:48.675Z,7.03
2019-05-05T16:21:27.275Z,5.53
2019-05-05T16:24:00.132Z,6.87
2019-05-05T16:26:27.871Z,6.37
2019-05-05T16:28:55.903Z,5.07
2019-05-05T16:31:23.663Z,6.43
2019-05-05T16:33:51.371Z,4.62
2019-05-05T16:36:19.092Z,6.43
2019-05-05T16:38:46.784Z,6.57
2019-05-05T16:41:15.417Z,6.83
2019-05-05T16:43:44.351Z,5.97
2019-05-05T16:46:14.496Z,9.67
2019-05-05T16:48:46.285Z,5.33
2019-05-05T16:51:16.895Z,5.90
2019-05-05T16:53:44.652Z,10.03
2019-05-05T16:56:14.132Z,6.33
2019-05-05T16:58:42.060Z,6.67
2019-05-05T17:01:14.397Z,8.13
2019-05-05T17:03:45.451Z,6.73
2019-05-05T17:06:14.025Z,6.53
2019-05-05T17:08:44.197Z,6.23
2019-05-05T17:11:11.423Z,6.57
2019-05-05T17:13:47.495Z,8.30
2019-05-05T17:16:35.220Z,7.23
2019-05-05T17:19:14.978Z,6.63
2019-05-05T17:22:00.991Z,9.57
2019-05-05T17:24:28.737Z,6.67
2019-05-05T17:26:56.722Z,9.00
2019-05-05T17:29:24.520Z,5.67
2019-05-05T17:31:53.953Z,5.77
2019-05-05T17:34:24.485Z,7.23
2019-05-05T17:36:53.553Z,8.33
2019-05-05T17:39:23.750Z,6.77
2019-05-05T17:42:11.159Z,6.67
2019-05-05T17:44:57.221Z,8.43
2019-05-05T17:47:38.543Z,7.23
2019-05-05T17:50:28.790Z,7.90
2019-05-05T17:53:06.351Z,8.60
2019-05-05T17:55:38.811Z,7.90
2019-05-05T17:58:06.536Z,8.10
2019-05-05T18:00:39.909Z,6.37
2019-05-05T18:03:07.556Z,8.43
2019-05-05T18:05:55.475Z,6.90
2019-05-05T18:08:44.309Z,8.97
2019-05-05T18:11:18.693Z,6.13
2019-05-05T18:13:50.365Z,7.17
2019-05-05T18:16:20.720Z,7.93
2019-05-05T18:18:48.416Z,8.27
2019-05-05T18:21:17.890Z,10.40
2019-05-05T18:23:45.656Z,9.47
2019-05-05T18:26:13.767Z,7.60
2019-05-05T18:28:41.580Z,8.40
2019-05-05T18:31:09.232Z,9.43
2019-05-05T18:33:36.911Z,9.37
2019-05-05T18:36:04.667Z,8.43
2019-05-05T18:38:33.910Z,8.20
2019-05-05T18:41:06.256Z,6.33
2019-05-05T18:43:56.435Z,7.20
2019-05-05T18:46:24.451Z,10.47
2019-05-05T18:48:52.121Z,12.00
2019-05-05T18:51:19.832Z,7.67
2019-05-05T18:53:47.487Z,9.20
2019-05-05T18:56:15.285Z,7.70
2019-05-05T18:58:44.702Z,17.27
2019-05-05T19:01:20.550Z,7.97
2019-05-05T19:04:06.620Z,7.10
2019-05-05T19:07:06.239Z,7.93
2019-05-05T19:09:35.862Z,8.97
2019-05-05T19:12:04.083Z,7.40
2019-05-05T19:14:32.043Z,8.10
2019-05-05T19:17:05.547Z,8.30
2019-05-05T19:19:34.501Z,8.23
2019-05-05T19:22:07.031Z,7.83
2019-05-05T19:24:35.391Z,8.77
2019-05-05T19:27:03.766Z,11.00
2019-05-05T19:29:31.751Z,9.43
2019-05-05T19:31:59.610Z,10.03
2019-05-05T19:34:27.299Z,9.27
2019-05-05T19:36:55.000Z,9.33
2019-05-05T19:39:24.322Z,7.50
2019-05-05T19:41:54.392Z,11.10
2019-05-05T19:44:25.874Z,9.53
2019-05-05T19:46:56.835Z,8.50
2019-05-05T19:49:24.496Z,7.77
2019-05-05T19:51:54.148Z,10.93
2019-05-05T19:54:21.656Z,11.97
2019-05-05T19:56:49.463Z,8.40
2019-05-05T19:59:17.127Z,6.50
2019-05-05T20:01:45.155Z,8.03
2019-05-05T20:04:14.640Z,8.07
2019-05-05T20:06:44.305Z,8.27
2019-05-05T20:09:13.904Z,8.93
2019-05-05T20:11:43.567Z,6.57
2019-05-05T20:14:15.094Z,9.50
2019-05-05T20:17:04.142Z,9.60
2019-05-05T20:19:34.254Z,8.57
2019-05-05T20:22:01.947Z,7.83
2019-05-05T20:24:29.695Z,10.37
2019-05-05T20:26:57.397Z,8.23
2019-05-05T20:29:25.078Z,9.40
2019-05-05T20:31:54.784Z,7.33
2019-05-05T20:34:44.483Z,8.97
2019-05-05T20:37:14.325Z,8.97
2019-05-05T20:39:43.964Z,7.57
2019-05-05T20:42:11.968Z,8.33
2019-05-05T20:44:39.568Z,7.63
2019-05-05T20:47:07.224Z,8.40
2019-05-05T20:49:34.851Z,14.17
2019-05-05T20:52:03.759Z,15.47
2019-05-05T20:54:31.611Z,14.40
2019-05-05T20:56:59.462Z,8.43
2019-05-05T20:59:30.660Z,10.97
2019-05-05T21:01:56.813Z,9.47
2019-05-05T21:04:24.697Z,12.97
2019-05-05T21:06:52.312Z,10.10
2019-05-05T21:09:20.022Z,12.23
2019-05-05T21:11:47.856Z,13.53
2019-05-05T21:14:15.913Z,8.97
2019-05-05T21:16:44.133Z,14.70
2019-05-05T21:19:13.966Z,12.63
2019-05-05T21:21:44.617Z,13.03
2019-05-05T21:24:12.341Z,15.87
2019-05-05T21:26:53.177Z,13.37
2019-05-05T21:29:20.800Z,11.47
2019-05-05T21:31:48.551Z,12.57
2019-05-05T21:34:16.307Z,11.80
2019-05-05T21:36:45.078Z,13.73
2019-05-05T21:39:14.932Z,11.27
2019-05-05T21:41:43.807Z,13.00
2019-05-05T21:44:11.589Z,11.37
2019-05-05T21:46:39.218Z,10.87
2019-05-05T21:49:08.656Z,12.67
2019-05-05T21:51:42.794Z,12.00
2019-05-05T21:54:28.581Z,13.63
2019-05-05T21:57:14.546Z,11.33
2019-05-05T21:59:52.948Z,9.87
2019-05-05T22:02:12.053Z,9.97
2019-05-05T22:04:59.261Z,12.40
2019-05-05T22:07:26.947Z,12.13
2019-05-05T22:09:54.699Z,10.57
2019-05-05T22:12:24.331Z,12.00
2019-05-05T22:14:51.995Z,11.53
2019-05-05T22:17:19.654Z,10.17
2019-05-05T22:20:18.866Z,9.60
2019-05-05T22:22:46.682Z,12.40
2019-05-05T22:25:14.243Z,12.63
2019-05-05T22:27:43.997Z,9.27
2019-05-05T22:30:11.513Z,8.20
2019-05-05T22:32:39.256Z,13.00
2019-05-05T22:35:07.119Z,8.97
2019-05-05T22:37:34.840Z,10.07
2019-05-05T22:40:02.510Z,10.27
2019-05-05T22:42:36.356Z,10.57
2019-05-05T22:45:04.724Z,11.20
2019-05-05T22:47:34.351Z,8.30
2019-05-05T22:50:04.437Z,11.60
2019-05-05T22:52:34.217Z,9.70
2019-05-05T22:55:01.595Z,8.73
2019-05-05T22:57:29.242Z,9.93
2019-05-05T22:59:56.882Z,9.83
2019-05-05T23:02:27.656Z,8.20
2019-05-05T23:05:03.929Z,9.10
2019-05-05T23:07:34.800Z,8.83
2019-05-05T23:10:01.723Z,7.97
2019-05-05T23:12:29.688Z,8.60
2019-05-05T23:14:57.413Z,9.83
2019-05-05T23:17:46.676Z,8.23
2019-05-05T23:20:48.497Z,10.70
2019-05-05T23:23:24.912Z,7.60
2019-05-05T23:25:54.450Z,8.63
2019-05-05T23:28:23.711Z,7.10
2019-05-05T23:30:54.581Z,7.50
2019-05-05T23:33:24.992Z,7.10
2019-05-05T23:35:54.895Z,9.50
2019-05-05T23:38:23.893Z,11.47
2019-05-05T23:40:51.686Z,7.73
2019-05-05T23:43:19.332Z,8.10
2019-05-05T23:45:46.986Z,13.33
2019-05-05T23:48:15.186Z,7.63
2019-05-05T23:50:44.566Z,9.73
2019-05-05T23:53:13.835Z,8.37
2019-05-05T23:55:43.938Z,9.87
2019-05-05T23:58:11.062Z,8.57
